createdAt,value
2022-10-17T00:00:25.970Z,80.10
2022-10-17T00:02:56.545Z,80.10
2022-10-17T00:05:25.088Z,80.10
2022-10-17T00:07:53.388Z,80.00
2022-10-17T00:10:22.409Z,80.10
2022-10-17T00:12:52.349Z,80.20
2022-10-17T00:15:22.162Z,80.30
2022-10-17T00:17:50.433Z,80.20
2022-10-17T00:20:18.631Z,80.10
2022-10-17T00:22:46.892Z,80.10
2022-10-17T00:25:15.004Z,80.20
2022-10-17T00:27:43.378Z,80.40
2022-10-17T00:30:15.414Z,80.60
2022-10-17T00:32:43.579Z,80.90
2022-10-17T00:35:11.983Z,80.60
2022-10-17T00:37:40.163Z,80.60
2022-10-17T00:40:09.743Z,80.70
2022-10-17T00:42:37.858Z,81.00
2022-10-17T00:45:17.611Z,80.90
2022-10-17T00:47:49.335Z,81.30
2022-10-17T00:50:17.752Z,81.00
2022-10-17T00:52:47.086Z,80.80
2022-10-17T00:55:19.483Z,81.00
2022-10-17T00:57:48.107Z,81.10
2022-10-17T01:00:19.055Z,81.00
2022-10-17T01:02:47.382Z,81.30
2022-10-17T01:05:17.102Z,81.20
2022-10-17T01:07:47.103Z,81.30
2022-10-17T01:10:16.083Z,81.30
2022-10-17T01:13:01.528Z,81.40
2022-10-17T01:15:41.191Z,81.60
2022-10-17T01:18:15.903Z,81.60
2022-10-17T01:21:29.020Z,81.30
2022-10-17T01:24:27.309Z,81.70
2022-10-17T01:27:34.969Z,81.60
2022-10-17T01:30:46.383Z,81.30
2022-10-17T01:33:23.380Z,81.20
2022-10-17T01:36:00.521Z,80.90
2022-10-17T01:38:36.784Z,81.00
2022-10-17T01:41:10.927Z,81.20
2022-10-17T01:43:42.276Z,81.40
2022-10-17T02:21:02.010Z,80.50
2022-10-17T02:23:39.045Z,80.50
2022-10-17T02:26:13.154Z,80.50
2022-10-17T02:28:45.967Z,81.10
2022-10-17T02:31:18.821Z,81.70
2022-10-17T02:33:50.315Z,82.00
2022-10-17T02:36:24.341Z,82.10
2022-10-17T02:38:54.406Z,82.40
2022-10-17T02:41:25.002Z,82.10
2022-10-17T02:43:57.617Z,82.20
2022-10-17T02:46:29.869Z,82.10
2022-10-17T02:49:02.954Z,82.10
2022-10-17T02:51:43.393Z,82.20
2022-10-17T02:54:18.024Z,82.40
2022-10-17T02:56:52.664Z,82.10
2022-10-17T02:59:23.985Z,82.20
2022-10-17T03:01:52.952Z,82.10
2022-10-17T03:04:21.442Z,82.00
2022-10-17T03:06:51.051Z,82.10
2022-10-17T03:09:19.278Z,82.30
2022-10-17T03:11:47.486Z,82.20
2022-10-17T03:14:15.775Z,82.20
2022-10-17T03:16:43.999Z,82.30
2022-10-17T03:19:12.216Z,82.30
2022-10-17T03:21:40.440Z,82.40
2022-10-17T03:24:10.259Z,82.30
2022-10-17T03:26:38.537Z,82.50
2022-10-17T03:29:06.832Z,82.30
2022-10-17T03:31:35.477Z,82.20
2022-10-17T03:34:04.364Z,82.20
2022-10-17T03:36:32.648Z,82.10
2022-10-17T03:39:00.863Z,82.00
2022-10-17T03:41:30.483Z,81.90
2022-10-17T03:43:58.697Z,82.00
2022-10-17T03:46:26.937Z,81.90
2022-10-17T03:48:55.322Z,82.00
2022-10-17T03:51:23.579Z,82.10
2022-10-17T03:53:51.854Z,82.20
2022-10-17T03:56:22.443Z,82.20
2022-10-17T03:58:52.105Z,82.20
2022-10-17T04:01:21.393Z,82.10
2022-10-17T04:03:51.615Z,82.00
2022-10-17T04:06:20.809Z,82.00
2022-10-17T04:08:49.555Z,82.10
2022-10-17T04:11:19.882Z,82.40
2022-10-17T04:13:48.618Z,82.70
2022-10-17T04:16:18.913Z,82.70
2022-10-17T04:18:47.186Z,83.00
2022-10-17T04:21:15.410Z,82.90
2022-10-17T04:23:43.652Z,82.80
2022-10-17T04:26:11.869Z,82.60
2022-10-17T04:28:40.198Z,82.20
2022-10-17T04:31:11.672Z,81.80
2022-10-17T04:33:41.692Z,81.60
2022-10-17T04:36:13.719Z,82.10
2022-10-17T04:38:42.241Z,81.30
2022-10-17T04:41:13.908Z,81.10
2022-10-17T04:43:44.473Z,81.20
2022-10-17T04:46:16.583Z,81.20
2022-10-17T04:48:46.414Z,81.30
2022-10-17T04:51:16.407Z,81.30
2022-10-17T04:53:45.409Z,81.40
2022-10-17T04:56:15.678Z,81.50
2022-10-17T04:58:44.873Z,81.50
2022-10-17T05:01:14.902Z,81.70
2022-10-17T05:03:43.829Z,81.80
2022-10-17T05:06:15.236Z,82.00
2022-10-17T05:08:43.775Z,82.40
2022-10-17T05:11:20.378Z,82.30
2022-10-17T05:13:52.570Z,82.90
2022-10-17T05:16:21.223Z,82.80
2022-10-17T05:18:52.968Z,82.60
2022-10-17T05:21:24.162Z,82.50
2022-10-17T05:23:53.116Z,82.50
2022-10-17T05:26:21.824Z,82.50
2022-10-17T05:28:50.134Z,82.60
2022-10-17T05:31:18.421Z,82.70
2022-10-17T05:33:46.666Z,82.70
2022-10-17T05:36:14.943Z,82.80
2022-10-17T05:38:44.628Z,82.90
2022-10-17T05:41:12.830Z,83.00
2022-10-17T05:43:41.092Z,82.90
2022-10-17T05:46:09.475Z,82.90
2022-10-17T05:48:37.821Z,82.80
2022-10-17T05:51:08.869Z,82.80
2022-10-17T05:53:39.377Z,82.70
2022-10-17T05:56:11.200Z,82.50
2022-10-17T05:58:50.401Z,82.50
2022-10-17T06:01:20.342Z,82.40
2022-10-17T06:03:48.699Z,82.20
2022-10-17T06:06:17.804Z,82.20
2022-10-17T06:08:46.820Z,82.20
2022-10-17T06:11:16.521Z,82.10
2022-10-17T06:13:44.794Z,82.10
2022-10-17T06:16:13.032Z,82.00
2022-10-17T06:18:41.699Z,82.00
2022-10-17T06:21:12.696Z,81.90
2022-10-17T06:23:41.039Z,82.10
2022-10-17T06:26:09.646Z,82.00
2022-10-17T06:28:39.367Z,82.30
2022-10-17T06:31:08.516Z,82.50
2022-10-17T06:33:36.853Z,82.50
2022-10-17T06:36:06.034Z,82.50
2022-10-17T06:38:36.562Z,82.40
2022-10-17T06:41:08.343Z,82.10
2022-10-17T06:43:38.617Z,81.80
2022-10-17T06:46:07.997Z,81.40
2022-10-17T06:48:36.678Z,80.90
2022-10-17T06:51:06.626Z,80.50
2022-10-17T07:56:34.915Z,68.30
2022-10-17T07:59:05.313Z,68.10
2022-10-17T08:01:37.004Z,67.60
2022-10-17T08:04:05.237Z,67.30
2022-10-17T08:06:33.459Z,67.10
2022-10-17T08:09:02.547Z,66.80
2022-10-17T08:11:30.741Z,66.10
2022-10-17T08:14:00.353Z,65.70
2022-10-17T08:16:28.543Z,64.70
2022-10-17T08:18:56.865Z,64.70
2022-10-17T08:21:25.179Z,64.20
2022-10-17T08:23:53.489Z,63.90
2022-10-17T08:26:21.869Z,63.80
2022-10-17T08:28:50.506Z,63.60
2022-10-17T08:31:21.938Z,62.90
2022-10-17T08:33:51.367Z,62.20
2022-10-17T08:36:21.442Z,62.40
2022-10-17T08:38:52.855Z,61.60
2022-10-17T08:41:52.589Z,61.50
2022-10-17T08:44:32.743Z,60.70
2022-10-17T08:47:05.370Z,60.30
2022-10-17T08:49:46.926Z,60.30
2022-10-17T08:52:23.490Z,60.50
2022-10-17T08:54:52.583Z,60.80
2022-10-17T08:57:20.891Z,61.70
2022-10-17T08:59:52.560Z,61.60
2022-10-17T09:02:44.580Z,60.90
2022-10-17T09:05:31.189Z,61.00
2022-10-17T09:08:08.375Z,61.20
2022-10-17T09:10:45.312Z,60.60
2022-10-17T09:13:25.406Z,60.60
2022-10-17T09:16:12.561Z,60.60
2022-10-17T09:18:44.171Z,60.60
2022-10-17T09:21:20.970Z,60.80
2022-10-17T09:23:59.443Z,60.10
2022-10-17T09:26:37.911Z,60.40
2022-10-17T09:29:16.967Z,60.10
2022-10-17T09:31:50.290Z,59.20
2022-10-17T09:34:21.961Z,59.40
2022-10-17T09:36:52.971Z,58.90
2022-10-17T09:39:26.154Z,59.30
2022-10-17T09:41:56.692Z,58.40
2022-10-17T09:44:27.286Z,58.00
2022-10-17T09:47:09.739Z,57.80
2022-10-17T09:49:41.437Z,56.50
2022-10-17T09:52:15.174Z,56.50
2022-10-17T09:54:46.652Z,55.50
2022-10-17T09:57:16.666Z,55.40
2022-10-17T09:59:46.807Z,54.70
2022-10-17T10:02:21.244Z,54.20
2022-10-17T10:05:04.950Z,53.50
2022-10-17T10:07:36.669Z,52.70
2022-10-17T10:10:07.603Z,53.20
2022-10-17T10:12:37.626Z,53.00
2022-10-17T10:15:34.544Z,52.20
2022-10-17T10:18:03.178Z,52.10
2022-10-17T10:20:35.869Z,51.90
2022-10-17T10:23:08.058Z,50.70
2022-10-17T10:25:37.670Z,55.30
2022-10-17T10:28:12.099Z,51.40
2022-10-17T10:30:40.399Z,50.40
2022-10-17T10:33:13.411Z,50.50
2022-10-17T10:35:43.068Z,49.10
2022-10-17T10:38:15.371Z,49.10
2022-10-17T10:40:48.298Z,49.00
2022-10-17T10:43:24.441Z,48.30
2022-10-17T10:45:53.660Z,47.80
2022-10-17T10:48:24.760Z,48.40
2022-10-17T10:50:59.229Z,47.30
2022-10-17T10:53:35.808Z,46.20
2022-10-17T10:56:09.493Z,46.00
2022-10-17T10:58:53.403Z,45.60
2022-10-17T11:01:29.446Z,45.60
2022-10-17T11:04:32.616Z,45.80
2022-10-17T11:07:03.553Z,47.60
2022-10-17T11:09:42.307Z,50.40
2022-10-17T11:12:18.247Z,45.70
2022-10-17T11:14:52.800Z,45.20
2022-10-17T11:17:30.542Z,44.40
2022-10-17T11:20:11.234Z,44.20
2022-10-17T11:22:45.488Z,43.60
2022-10-17T11:25:29.284Z,43.90
2022-10-17T11:28:02.184Z,44.30
2022-10-17T11:30:41.463Z,43.80
2022-10-17T11:33:12.058Z,43.10
2022-10-17T11:35:58.707Z,43.70
2022-10-17T11:38:38.064Z,43.10
2022-10-17T11:41:07.894Z,42.70
2022-10-17T11:43:41.199Z,42.70
2022-10-17T11:46:17.146Z,42.50
2022-10-17T11:48:56.413Z,42.10
2022-10-17T11:54:18.909Z,42.30
2022-10-17T11:56:54.477Z,41.70
2022-10-17T11:59:55.547Z,41.30
2022-10-17T12:02:35.064Z,42.80
2022-10-17T12:05:11.303Z,41.70
2022-10-17T12:07:53.808Z,41.80
2022-10-17T12:10:36.287Z,41.50
2022-10-17T12:13:37.830Z,41.10
2022-10-17T12:16:51.072Z,41.40
2022-10-17T12:19:26.642Z,41.40
2022-10-17T12:22:21.288Z,40.40
2022-10-17T12:25:03.100Z,40.40
2022-10-17T12:27:45.982Z,40.90
2022-10-17T12:30:23.897Z,40.30
2022-10-17T12:33:07.536Z,40.40
2022-10-17T12:35:37.704Z,40.40
2022-10-17T12:38:29.684Z,41.10
2022-10-17T12:41:00.086Z,42.20
2022-10-17T12:46:47.809Z,42.60
2022-10-17T12:49:40.840Z,43.20
2022-10-17T12:52:26.716Z,43.00
2022-10-17T12:55:14.679Z,45.30
2022-10-17T12:57:51.772Z,43.00
2022-10-17T13:00:25.261Z,42.40
2022-10-17T13:02:56.087Z,42.10
2022-10-17T13:05:29.588Z,41.80
2022-10-17T13:08:00.548Z,41.60
2022-10-17T13:10:32.296Z,41.50
2022-10-17T13:13:15.174Z,41.40
2022-10-17T13:15:48.135Z,41.60
2022-10-17T13:18:22.080Z,44.20
2022-10-17T13:20:58.038Z,42.40
2022-10-17T13:42:29.907Z,44.10
2022-10-17T13:45:00.214Z,43.30
2022-10-17T13:47:30.701Z,43.40
2022-10-17T13:50:00.428Z,43.80
2022-10-17T13:52:30.957Z,44.30
2022-10-17T13:55:08.614Z,44.40
2022-10-17T13:57:38.275Z,44.50
2022-10-17T14:00:12.635Z,44.50
2022-10-17T14:02:42.474Z,44.30
2022-10-17T14:05:18.967Z,44.50
2022-10-17T14:08:10.883Z,44.10
2022-10-17T14:10:41.616Z,44.00
2022-10-17T14:13:21.792Z,44.30
2022-10-17T14:15:51.169Z,44.20
2022-10-17T14:18:22.811Z,44.20
2022-10-17T14:23:42.997Z,44.20
2022-10-17T14:26:16.626Z,44.10
2022-10-17T14:28:49.689Z,43.90
2022-10-17T14:31:27.686Z,43.80
2022-10-17T14:33:56.304Z,43.50
2022-10-17T14:36:35.358Z,43.40
2022-10-17T14:39:04.681Z,43.60
2022-10-17T14:41:44.030Z,43.70
2022-10-17T14:44:23.503Z,43.90
2022-10-17T14:46:56.781Z,44.60
2022-10-17T14:49:29.745Z,44.90
2022-10-17T14:52:27.589Z,45.30
2022-10-17T14:54:56.283Z,46.00
2022-10-17T14:57:27.752Z,45.80
2022-10-17T14:59:58.382Z,46.40
2022-10-17T15:02:28.184Z,46.80
2022-10-17T15:04:56.896Z,47.10
2022-10-17T15:07:25.215Z,47.40
2022-10-17T15:09:54.737Z,47.90
2022-10-17T15:12:25.144Z,48.30
2022-10-17T15:14:54.243Z,48.50
2022-10-17T15:17:25.939Z,48.80
2022-10-17T15:19:54.257Z,49.10
2022-10-17T15:22:22.651Z,49.20
2022-10-17T15:24:50.998Z,49.30
2022-10-17T15:27:21.389Z,49.50
2022-10-17T15:29:50.203Z,49.90
2022-10-17T15:32:18.861Z,50.20
2022-10-17T15:34:48.803Z,50.40
2022-10-17T15:37:20.978Z,50.80
2022-10-17T15:39:53.450Z,50.90
2022-10-17T15:42:23.720Z,51.10
2022-10-17T15:44:52.209Z,51.10
2022-10-17T15:47:25.966Z,51.30
2022-10-17T15:49:56.623Z,51.70
2022-10-17T15:52:25.430Z,51.70
2022-10-17T15:54:54.190Z,51.90
2022-10-17T15:57:24.720Z,52.00
2022-10-17T15:59:54.293Z,52.40
2022-10-17T16:02:24.657Z,52.50
2022-10-17T16:04:53.719Z,52.70
2022-10-17T16:07:24.479Z,52.70
2022-10-17T16:09:52.690Z,53.00
2022-10-17T16:12:31.234Z,53.00
2022-10-17T16:14:59.559Z,53.30
2022-10-17T16:17:28.275Z,53.30
2022-10-17T16:19:56.733Z,53.30
2022-10-17T16:22:32.609Z,53.60
2022-10-17T16:25:09.319Z,53.90
2022-10-17T16:27:38.386Z,53.70
2022-10-17T16:30:08.940Z,53.90
2022-10-17T16:32:37.220Z,54.00
2022-10-17T16:35:06.287Z,54.10
2022-10-17T16:37:36.123Z,54.30
2022-10-17T16:40:05.169Z,54.70
2022-10-17T16:42:33.382Z,54.60
2022-10-17T16:45:01.633Z,54.80
2022-10-17T16:47:29.840Z,54.90
2022-10-17T16:49:58.037Z,55.30
2022-10-17T16:52:26.490Z,55.50
2022-10-17T16:54:56.179Z,55.80
2022-10-17T16:57:24.434Z,56.10
2022-10-17T16:59:52.751Z,56.30
2022-10-17T17:02:21.484Z,56.40
2022-10-17T17:04:49.979Z,56.70
2022-10-17T17:07:19.654Z,56.80
2022-10-17T17:09:47.952Z,57.00
2022-10-17T17:12:20.245Z,57.10
2022-10-17T17:14:48.610Z,57.30
2022-10-17T17:17:30.278Z,57.20
2022-10-17T17:20:05.688Z,57.50
2022-10-17T17:22:34.380Z,57.70
2022-10-17T17:25:02.604Z,57.70
2022-10-17T17:27:32.620Z,57.90
2022-10-17T17:30:01.033Z,58.20
2022-10-17T17:32:29.594Z,58.20
2022-10-17T17:34:57.804Z,58.20
2022-10-17T17:37:26.294Z,58.30
2022-10-17T17:39:54.580Z,58.50
2022-10-17T17:42:22.822Z,58.70
2022-10-17T17:44:52.424Z,58.70
2022-10-17T17:47:20.819Z,59.00
2022-10-17T17:49:49.502Z,59.00
2022-10-17T17:52:17.784Z,59.10
2022-10-17T17:54:46.212Z,59.20
2022-10-17T17:57:14.462Z,59.40
2022-10-17T17:59:43.132Z,59.60
2022-10-17T18:02:13.023Z,59.90
2022-10-17T18:04:41.367Z,60.20
2022-10-17T18:07:09.695Z,60.20
2022-10-17T18:09:38.055Z,60.50
2022-10-17T18:12:07.938Z,60.80
2022-10-17T18:14:36.157Z,61.20
2022-10-17T18:17:04.691Z,61.40
2022-10-17T18:19:34.505Z,61.60
2022-10-17T18:22:02.756Z,62.00
2022-10-17T18:24:30.943Z,62.10
2022-10-17T18:27:01.843Z,62.20
2022-10-17T18:29:31.403Z,62.10
2022-10-17T18:32:00.175Z,62.30
2022-10-17T18:34:28.677Z,62.30
2022-10-17T18:37:00.029Z,62.40
2022-10-17T18:39:31.461Z,62.60
2022-10-17T18:41:59.940Z,62.60
2022-10-17T18:44:44.099Z,62.80
2022-10-17T18:47:12.327Z,63.80
2022-10-17T18:49:40.578Z,63.10
2022-10-17T18:52:10.214Z,63.10
2022-10-17T18:54:38.867Z,63.30
2022-10-17T18:57:07.974Z,63.00
2022-10-17T18:59:36.335Z,63.10
2022-10-17T19:02:04.929Z,63.20
2022-10-17T19:04:34.579Z,63.30
2022-10-17T19:07:02.790Z,63.40
2022-10-17T19:09:32.543Z,63.70
2022-10-17T19:12:04.429Z,64.10
2022-10-17T19:14:32.746Z,64.40
2022-10-17T19:17:04.955Z,64.50
2022-10-17T19:19:36.398Z,64.90
2022-10-17T19:22:05.653Z,65.00
2022-10-17T19:24:35.233Z,65.40
2022-10-17T19:27:05.238Z,65.80
2022-10-17T19:29:35.986Z,66.10
2022-10-17T19:32:06.881Z,66.80
2022-10-17T19:34:37.245Z,66.80
2022-10-17T19:37:08.470Z,66.80
2022-10-17T19:39:42.247Z,66.30
2022-10-17T19:42:12.476Z,66.70
2022-10-17T19:44:40.783Z,66.40
2022-10-17T19:47:09.113Z,66.40
2022-10-17T19:49:42.363Z,66.70
2022-10-17T19:52:13.263Z,67.50
2022-10-17T19:54:44.790Z,67.60
2022-10-17T19:57:16.190Z,68.50
2022-10-17T19:59:44.447Z,68.00
2022-10-17T20:02:14.607Z,68.20
2022-10-17T20:07:48.530Z,68.60
2022-10-17T20:10:18.919Z,68.40
2022-10-17T20:12:47.019Z,69.20
2022-10-17T20:15:15.567Z,69.30
2022-10-17T20:17:43.767Z,69.60
2022-10-17T20:20:12.008Z,69.80
2022-10-17T20:22:40.077Z,69.90
2022-10-17T20:25:09.050Z,69.90
2022-10-17T20:27:38.675Z,69.90
2022-10-17T20:30:08.259Z,70.00
2022-10-17T20:32:39.559Z,69.90
2022-10-17T20:35:09.239Z,70.00
2022-10-17T20:37:41.615Z,70.10
2022-10-17T20:40:33.522Z,70.10
2022-10-17T20:43:01.447Z,70.20
2022-10-17T20:45:43.794Z,70.30
2022-10-17T20:48:17.675Z,69.90
2022-10-17T20:50:45.945Z,69.70
2022-10-17T20:56:03.884Z,69.50
2022-10-17T20:58:34.142Z,69.50
2022-10-17T21:01:07.237Z,69.90
2022-10-17T21:03:39.802Z,70.10
2022-10-17T21:06:11.011Z,69.80
2022-10-17T21:08:39.335Z,69.70
2022-10-17T21:11:12.135Z,69.50
2022-10-17T21:13:41.997Z,69.90
2022-10-17T21:16:12.340Z,69.70
2022-10-17T21:18:46.430Z,69.60
2022-10-17T21:21:17.680Z,70.00
2022-10-17T21:23:47.634Z,70.00
2022-10-17T21:26:16.703Z,69.90
2022-10-17T21:28:47.772Z,70.00
2022-10-17T21:31:18.910Z,70.20
2022-10-17T21:33:48.997Z,70.00
2022-10-17T21:36:18.188Z,70.20
2022-10-17T21:38:47.575Z,70.20
2022-10-17T21:41:19.488Z,70.00
2022-10-17T21:43:49.678Z,69.80
2022-10-17T21:46:19.630Z,70.10
2022-10-17T21:48:48.933Z,70.20
2022-10-17T21:51:18.303Z,70.40
2022-10-17T21:53:46.869Z,70.50
2022-10-17T21:56:17.270Z,70.30
2022-10-17T21:58:45.938Z,70.30
2022-10-17T22:01:17.650Z,71.10
2022-10-17T22:03:49.254Z,71.00
2022-10-17T22:06:38.787Z,71.10
2022-10-17T22:09:09.826Z,71.10
2022-10-17T22:11:37.979Z,70.90
2022-10-17T22:14:07.830Z,70.90
2022-10-17T22:16:39.381Z,72.30
2022-10-17T22:19:09.251Z,72.80
2022-10-17T22:21:38.326Z,71.90
2022-10-17T22:24:08.508Z,71.30
2022-10-17T22:26:38.141Z,70.90
2022-10-17T22:29:06.906Z,70.70
2022-10-17T22:31:37.529Z,70.50
2022-10-17T22:34:05.870Z,70.60
2022-10-17T22:36:34.744Z,70.50
2022-10-17T22:39:03.184Z,70.80
2022-10-17T22:41:31.398Z,70.90
2022-10-17T22:43:59.626Z,71.00
2022-10-17T22:46:27.792Z,71.10
2022-10-17T22:48:57.421Z,71.00
2022-10-17T22:51:25.537Z,71.00
2022-10-17T22:53:53.631Z,70.90
2022-10-17T22:56:22.889Z,71.00
2022-10-17T22:58:51.522Z,71.20
2022-10-17T23:01:21.665Z,71.40
2022-10-17T23:03:50.950Z,71.60
2022-10-17T23:06:20.597Z,71.60
2022-10-17T23:08:48.930Z,71.90
2022-10-17T23:11:17.465Z,71.90
2022-10-17T23:13:45.577Z,72.00
2022-10-17T23:16:17.123Z,72.10
2022-10-17T23:18:45.391Z,72.60
2022-10-17T23:21:13.674Z,72.30
2022-10-17T23:23:43.144Z,72.10
2022-10-17T23:26:13.886Z,72.00
2022-10-17T23:28:43.838Z,71.80
2022-10-17T23:31:16.814Z,71.90
2022-10-17T23:33:46.761Z,72.50
2022-10-17T23:36:16.676Z,72.50
2022-10-17T23:38:47.230Z,72.60
2022-10-17T23:41:16.117Z,72.80
2022-10-17T23:43:44.656Z,72.70
2022-10-17T23:46:13.075Z,72.70
2022-10-17T23:48:42.081Z,72.90
2022-10-17T23:51:11.619Z,72.90
2022-10-17T23:53:40.300Z,73.10
2022-10-17T23:56:11.430Z,73.10
2022-10-17T23:58:40.266Z,73.40
